Time;durP1;ratioP1;P1;durP2;ratioP2;P2;SDS_P1;SDS_P2;PMS_P1;PMS_P2;Temp;Humidity;BMP_temperature;BMP_pressure;BME280_temperature;BME280_humidity;BME280_pressure;Samples;Min_cycle;Max_cycle;Signal;HPM_P1;HPM_P2
2023/11/13 00:00:44;;;;;;;2.50;2.30;;;;;;;;;;4820128;29;20567;-84
2023/11/13 00:03:48;;;;;;;3.87;2.37;;;;;;;;;;4829941;29;20534;-84
2023/11/13 00:06:52;;;;;;;3.03;2.40;;;;;;;;;;4841373;29;20196;-84
2023/11/13 00:09:57;;;;;;;2.50;2.30;;;;;;;;;;4830267;29;20192;-85
2023/11/13 00:13:01;;;;;;;2.57;2.23;;;;;;;;;;4831107;29;20578;-84
2023/11/13 00:16:05;;;;;;;2.70;2.50;;;;;;;;;;4830763;29;20188;-84
2023/11/13 00:19:09;;;;;;;2.50;2.30;;;;;;;;;;4840911;29;20196;-84
2023/11/13 00:22:13;;;;;;;3.27;2.30;;;;;;;;;;4840922;29;20224;-84
2023/11/13 00:25:18;;;;;;;2.90;2.60;;;;;;;;;;4827589;29;20527;-84
2023/11/13 00:28:24;;;;;;;3.13;2.73;;;;;;;;;;4827139;29;20189;-84
2023/11/13 00:31:28;;;;;;;4.53;2.90;;;;;;;;;;4827049;29;20192;-84
2023/11/13 00:34:32;;;;;;;5.10;3.03;;;;;;;;;;4827313;29;20193;-84
2023/11/13 00:37:36;;;;;;;3.20;2.90;;;;;;;;;;4827127;29;20192;-85
2023/11/13 00:40:41;;;;;;;3.23;2.93;;;;;;;;;;4837425;29;20228;-84
2023/11/13 00:43:45;;;;;;;4.47;2.50;;;;;;;;;;4827026;29;20200;-84
2023/11/13 00:46:49;;;;;;;3.47;3.10;;;;;;;;;;4837810;29;20626;-84
2023/11/13 00:49:53;;;;;;;3.27;2.80;;;;;;;;;;4826995;29;20638;-84
2023/11/13 00:52:58;;;;;;;3.07;2.77;;;;;;;;;;4826974;29;20721;-83
2023/11/13 00:56:06;;;;;;;3.73;3.10;;;;;;;;;;4826702;29;20196;-84
2023/11/13 00:59:11;;;;;;;4.00;3.37;;;;;;;;;;4827465;29;20654;-84
2023/11/13 01:02:15;;;;;;;4.20;3.70;;;;;;;;;;4827395;29;20243;-84
2023/11/13 01:05:20;;;;;;;5.03;3.97;;;;;;;;;;4827974;29;20196;-84
2023/11/13 01:08:25;;;;;;;5.33;3.97;;;;;;;;;;4837056;29;20214;-85
2023/11/13 01:11:29;;;;;;;4.87;3.57;;;;;;;;;;4836984;29;20184;-84
2023/11/13 01:14:34;;;;;;;4.13;3.73;;;;;;;;;;4827012;29;20220;-84
2023/11/13 01:17:38;;;;;;;4.77;3.80;;;;;;;;;;4826628;29;20192;-84
2023/11/13 01:20:42;;;;;;;4.03;3.63;;;;;;;;;;4836925;29;20220;-84
2023/11/13 01:23:47;;;;;;;4.30;3.53;;;;;;;;;;4826385;29;20192;-84
2023/11/13 01:26:51;;;;;;;4.97;4.43;;;;;;;;;;4826182;29;20192;-84
2023/11/13 01:29:55;;;;;;;5.20;4.07;;;;;;;;;;4826727;29;20532;-84
2023/11/13 01:32:59;;;;;;;5.63;4.73;;;;;;;;;;4826633;29;20223;-84
2023/11/13 01:36:04;;;;;;;5.07;4.57;;;;;;;;;;4826070;29;20531;-84
2023/11/13 01:39:08;;;;;;;5.60;4.70;;;;;;;;;;4826184;29;20200;-83
2023/11/13 01:42:13;;;;;;;5.47;4.60;;;;;;;;;;4826261;29;20240;-84
2023/11/13 01:45:18;;;;;;;7.90;5.07;;;;;;;;;;4826548;29;20192;-84
2023/11/13 01:48:23;;;;;;;6.00;4.90;;;;;;;;;;4815741;29;20192;-84
2023/11/13 01:51:29;;;;;;;6.57;5.20;;;;;;;;;;4820214;29;20193;-82
2023/11/13 01:54:33;;;;;;;9.27;5.30;;;;;;;;;;4831697;29;20196;-82
2023/11/13 01:57:38;;;;;;;6.23;4.97;;;;;;;;;;4841839;29;20527;-82
2023/11/13 02:00:42;;;;;;;6.63;5.53;;;;;;;;;;4830827;29;20567;-81
2023/11/13 02:03:49;;;;;;;6.50;5.20;;;;;;;;;;4841362;29;20821;-82
2023/11/13 02:06:53;;;;;;;5.60;4.83;;;;;;;;;;4832230;29;20192;-82
2023/11/13 02:09:57;;;;;;;7.37;5.70;;;;;;;;;;4830750;29;20193;-82
2023/11/13 02:13:05;;;;;;;6.80;5.83;;;;;;;;;;4831238;29;20232;-82
2023/11/13 02:16:12;;;;;;;6.93;5.97;;;;;;;;;;4830261;29;20188;-82
2023/11/13 02:19:16;;;;;;;7.40;5.90;;;;;;;;;;4830147;29;20192;-82
2023/11/13 02:22:20;;;;;;;7.20;6.10;;;;;;;;;;4830128;29;20244;-82
2023/11/13 02:25:26;;;;;;;7.57;6.13;;;;;;;;;;4840532;29;20192;-82
2023/11/13 02:28:30;;;;;;;8.40;6.53;;;;;;;;;;4830539;29;20188;-82
2023/11/13 02:31:34;;;;;;;8.57;6.23;;;;;;;;;;4841037;29;20224;-82
2023/11/13 02:34:38;;;;;;;7.50;6.50;;;;;;;;;;4831024;29;20658;-82
2023/11/13 02:37:43;;;;;;;7.27;6.17;;;;;;;;;;4819948;29;20192;-82
2023/11/13 02:40:47;;;;;;;8.40;7.37;;;;;;;;;;4840434;29;20220;-82
2023/11/13 02:43:51;;;;;;;7.03;6.33;;;;;;;;;;4830604;29;20192;-82
2023/11/13 02:46:56;;;;;;;11.73;7.00;;;;;;;;;;4830560;29;20188;-82
2023/11/13 02:50:00;;;;;;;9.70;7.23;;;;;;;;;;4830830;29;20196;-82
2023/11/13 02:53:05;;;;;;;8.77;7.00;;;;;;;;;;4830391;29;20232;-83
2023/11/13 02:56:09;;;;;;;8.43;7.10;;;;;;;;;;4838611;29;20196;-83
2023/11/13 02:59:15;;;;;;;8.27;6.70;;;;;;;;;;4828090;29;20188;-83
2023/11/13 03:02:19;;;;;;;9.97;7.83;;;;;;;;;;4838201;29;20239;-83
2023/11/13 03:05:23;;;;;;;10.37;7.27;;;;;;;;;;4838213;29;20541;-83
2023/11/13 03:08:27;;;;;;;10.10;7.80;;;;;;;;;;4828533;29;20200;-83
2023/11/13 03:11:32;;;;;;;11.33;8.17;;;;;;;;;;4827519;29;20232;-83
2023/11/13 03:14:35;;;;;;;10.63;8.50;;;;;;;;;;4827921;29;20567;-83
2023/11/13 03:17:40;;;;;;;9.03;7.10;;;;;;;;;;4828100;29;20192;-83
2023/11/13 03:20:45;;;;;;;11.87;7.17;;;;;;;;;;4838207;29;20188;-83
2023/11/13 03:23:49;;;;;;;9.27;7.20;;;;;;;;;;4827580;29;20196;-83
2023/11/13 03:26:53;;;;;;;12.43;7.73;;;;;;;;;;4827714;29;20196;-83
2023/11/13 03:29:58;;;;;;;10.57;8.07;;;;;;;;;;4827329;29;20188;-83
2023/11/13 03:33:03;;;;;;;9.93;7.27;;;;;;;;;;4828028;29;20223;-83
2023/11/13 03:36:07;;;;;;;10.67;7.00;;;;;;;;;;4817562;29;20192;-83
2023/11/13 03:39:12;;;;;;;8.60;7.40;;;;;;;;;;4827640;29;20639;-83
2023/11/13 03:42:16;;;;;;;10.70;7.27;;;;;;;;;;4837704;29;20236;-83
2023/11/13 03:45:21;;;;;;;10.03;7.27;;;;;;;;;;4837808;29;20192;-83
2023/11/13 03:48:25;;;;;;;9.83;7.50;;;;;;;;;;4828235;29;20188;-83
2023/11/13 03:51:29;;;;;;;8.37;6.90;;;;;;;;;;4827062;29;20631;-83
2023/11/13 03:54:33;;;;;;;7.70;6.10;;;;;;;;;;4837535;29;20192;-83
2023/11/13 03:57:37;;;;;;;7.50;5.90;;;;;;;;;;4837980;29;20201;-83
2023/11/13 04:00:41;;;;;;;7.37;5.63;;;;;;;;;;4840647;29;20192;-83
2023/11/13 04:03:46;;;;;;;9.30;6.20;;;;;;;;;;4841090;29;20189;-83
2023/11/13 04:06:50;;;;;;;7.53;6.57;;;;;;;;;;4830200;29;20192;-83
2023/11/13 04:09:55;;;;;;;7.07;5.83;;;;;;;;;;4830133;29;20196;-83
2023/11/13 04:13:00;;;;;;;7.03;5.73;;;;;;;;;;4840524;29;20219;-82
2023/11/13 04:16:04;;;;;;;7.17;6.10;;;;;;;;;;4830599;29;20550;-83
2023/11/13 04:19:09;;;;;;;8.50;6.40;;;;;;;;;;4829977;29;20193;-83
2023/11/13 04:22:13;;;;;;;7.63;6.03;;;;;;;;;;4829732;29;20240;-83
2023/11/13 04:25:18;;;;;;;6.77;5.37;;;;;;;;;;4830553;29;20200;-83
2023/11/13 04:28:22;;;;;;;8.20;5.47;;;;;;;;;;4830451;29;20193;-83
2023/11/13 04:31:27;;;;;;;7.60;5.80;;;;;;;;;;4818867;29;20547;-83
2023/11/13 04:34:31;;;;;;;6.80;5.13;;;;;;;;;;4830072;29;20192;-83
2023/11/13 04:37:36;;;;;;;5.60;4.87;;;;;;;;;;4829748;29;20188;-82
2023/11/13 04:40:40;;;;;;;6.33;5.10;;;;;;;;;;4830133;29;20543;-83
2023/11/13 04:43:44;;;;;;;6.93;4.87;;;;;;;;;;4829819;29;20188;-83
2023/11/13 04:46:49;;;;;;;5.87;5.03;;;;;;;;;;4829900;29;20642;-83
2023/11/13 04:49:53;;;;;;;6.97;5.30;;;;;;;;;;4829715;29;20527;-83
2023/11/13 04:52:57;;;;;;;5.83;4.70;;;;;;;;;;4830341;29;20717;-83
2023/11/13 04:56:01;;;;;;;8.93;5.27;;;;;;;;;;4830014;29;20193;-83
2023/11/13 04:59:09;;;;;;;6.67;5.33;;;;;;;;;;4830112;29;20196;-83
2023/11/13 05:02:13;;;;;;;6.70;5.00;;;;;;;;;;4830246;29;20591;-83
2023/11/13 05:05:17;;;;;;;6.37;4.87;;;;;;;;;;4839065;29;20200;-83
2023/11/13 05:08:22;;;;;;;7.43;5.37;;;;;;;;;;4829268;29;20192;-83
2023/11/13 05:11:26;;;;;;;5.97;4.93;;;;;;;;;;4838979;29;20192;-83
2023/11/13 05:14:30;;;;;;;7.43;5.13;;;;;;;;;;4839495;29;20685;-83
2023/11/13 05:17:38;;;;;;;6.53;5.10;;;;;;;;;;4829235;29;20195;-83
2023/11/13 05:20:45;;;;;;;6.27;4.93;;;;;;;;;;4829176;29;20189;-83
2023/11/13 05:23:49;;;;;;;6.90;4.70;;;;;;;;;;4839254;29;20189;-83
2023/11/13 05:26:55;;;;;;;6.73;4.70;;;;;;;;;;4818830;29;20188;-83
2023/11/13 05:29:59;;;;;;;5.20;4.47;;;;;;;;;;4829152;29;20193;-83
2023/11/13 05:33:04;;;;;;;5.83;4.53;;;;;;;;;;4838692;29;20579;-83
2023/11/13 05:36:08;;;;;;;5.77;4.43;;;;;;;;;;4829410;29;20192;-83
2023/11/13 05:39:12;;;;;;;4.87;3.77;;;;;;;;;;4828765;29;20196;-83
2023/11/13 05:42:17;;;;;;;4.20;3.53;;;;;;;;;;4828081;29;20240;-83
2023/11/13 05:45:21;;;;;;;4.20;3.67;;;;;;;;;;4838570;29;20654;-83
2023/11/13 05:48:27;;;;;;;4.87;4.03;;;;;;;;;;4838604;29;20184;-82
2023/11/13 05:51:31;;;;;;;6.43;4.07;;;;;;;;;;4827971;29;20643;-83
2023/11/13 05:54:37;;;;;;;5.70;4.00;;;;;;;;;;4837963;29;20250;-83
2023/11/13 05:57:42;;;;;;;5.10;4.23;;;;;;;;;;4828969;29;20634;-83
2023/11/13 06:00:46;;;;;;;5.60;3.83;;;;;;;;;;4829333;29;20639;-82
2023/11/13 06:03:50;;;;;;;4.90;4.07;;;;;;;;;;4827681;29;20220;-83
2023/11/13 06:06:54;;;;;;;4.33;3.60;;;;;;;;;;4829351;29;20192;-82
2023/11/13 06:09:58;;;;;;;6.10;4.40;;;;;;;;;;4828126;29;20540;-82
2023/11/13 06:13:03;;;;;;;5.90;4.40;;;;;;;;;;4838551;29;20567;-82
2023/11/13 06:16:09;;;;;;;5.77;4.67;;;;;;;;;;4837595;29;20192;-84
2023/11/13 06:19:13;;;;;;;7.37;5.73;;;;;;;;;;4836917;29;20192;-84
2023/11/13 06:22:17;;;;;;;7.87;5.93;;;;;;;;;;4814504;29;20239;-84
2023/11/13 06:25:21;;;;;;;9.40;6.83;;;;;;;;;;4836495;29;20540;-84
2023/11/13 06:28:26;;;;;;;9.10;6.57;;;;;;;;;;4836281;29;20634;-84
2023/11/13 06:31:29;;;;;;;8.57;6.47;;;;;;;;;;4825887;29;20192;-84
2023/11/13 06:34:34;;;;;;;7.97;6.43;;;;;;;;;;4826090;29;20192;-84
2023/11/13 06:37:40;;;;;;;9.90;7.57;;;;;;;;;;4825794;29;20196;-84
2023/11/13 06:40:45;;;;;;;8.93;6.97;;;;;;;;;;4826550;29;20192;-84
2023/11/13 06:43:49;;;;;;;10.33;6.03;;;;;;;;;;4835783;29;20228;-84
2023/11/13 06:46:53;;;;;;;10.50;6.67;;;;;;;;;;4826302;29;20196;-84
2023/11/13 06:49:57;;;;;;;8.20;6.13;;;;;;;;;;4837835;29;20639;-84
2023/11/13 06:53:02;;;;;;;8.33;6.20;;;;;;;;;;4836890;29;20228;-84
2023/11/13 06:56:09;;;;;;;10.20;7.10;;;;;;;;;;4826741;29;20207;-83
2023/11/13 06:59:13;;;;;;;10.93;6.93;;;;;;;;;;4825225;29;20188;-84
2023/11/13 07:02:19;;;;;;;17.63;11.90;;;;;;;;;;4813963;29;20236;-84
2023/11/13 07:05:23;;;;;;;14.50;9.23;;;;;;;;;;4825496;29;20188;-84
2023/11/13 07:08:28;;;;;;;10.37;7.77;;;;;;;;;;4825065;29;20197;-84
2023/11/13 07:11:32;;;;;;;8.37;7.17;;;;;;;;;;4814321;29;20231;-84
2023/11/13 07:14:36;;;;;;;9.30;7.40;;;;;;;;;;4825135;29;20211;-84
2023/11/13 07:17:41;;;;;;;8.90;7.83;;;;;;;;;;4834741;29;20196;-85
2023/11/13 07:20:45;;;;;;;9.23;8.17;;;;;;;;;;4824846;29;20200;-85
2023/11/13 07:23:49;;;;;;;8.37;7.07;;;;;;;;;;4824925;29;20239;-85
2023/11/13 07:26:53;;;;;;;7.43;5.90;;;;;;;;;;4814485;29;20524;-85
2023/11/13 07:29:58;;;;;;;7.07;5.70;;;;;;;;;;4825111;29;20626;-85
2023/11/13 07:33:03;;;;;;;7.40;6.17;;;;;;;;;;4824072;29;20228;-84
2023/11/13 07:36:10;;;;;;;7.93;6.20;;;;;;;;;;4830276;29;20192;-83
2023/11/13 07:39:15;;;;;;;7.57;5.80;;;;;;;;;;4829639;29;20193;-84
2023/11/13 07:42:19;;;;;;;8.77;5.87;;;;;;;;;;4830239;29;20235;-84
2023/11/13 07:45:25;;;;;;;9.63;6.10;;;;;;;;;;4818553;29;20196;-84
2023/11/13 07:48:29;;;;;;;7.50;5.27;;;;;;;;;;4829725;29;20635;-83
2023/11/13 07:51:33;;;;;;;10.17;5.60;;;;;;;;;;4829711;29;20236;-83
2023/11/13 07:54:38;;;;;;;12.90;4.93;;;;;;;;;;4829212;29;20192;-83
2023/11/13 07:57:42;;;;;;;16.40;5.30;;;;;;;;;;4828957;29;20196;-83
2023/11/13 08:00:46;;;;;;;12.87;4.97;;;;;;;;;;4829336;29;20188;-83
2023/11/13 08:03:52;;;;;;;15.43;5.17;;;;;;;;;;4828807;29;20212;-83
2023/11/13 08:06:55;;;;;;;14.13;4.97;;;;;;;;;;4839584;29;20192;-83
2023/11/13 08:10:01;;;;;;;14.73;5.27;;;;;;;;;;4829222;29;20643;-83
2023/11/13 08:13:05;;;;;;;9.77;3.70;;;;;;;;;;4830130;29;20220;-83
2023/11/13 08:16:09;;;;;;;13.70;4.63;;;;;;;;;;4828252;29;20197;-83
2023/11/13 08:19:14;;;;;;;10.90;5.00;;;;;;;;;;4827579;29;20535;-85
2023/11/13 08:22:18;;;;;;;10.17;4.27;;;;;;;;;;4826570;29;20224;-85
2023/11/13 08:25:23;;;;;;;10.27;4.10;;;;;;;;;;4826722;29;20192;-84
2023/11/13 08:28:31;;;;;;;14.27;3.50;;;;;;;;;;4837075;29;20189;-84
2023/11/13 08:31:36;;;;;;;9.90;2.43;;;;;;;;;;4826635;29;20228;-84
2023/11/13 08:34:40;;;;;;;14.93;2.57;;;;;;;;;;4837012;29;20192;-84
2023/11/13 08:37:46;;;;;;;8.07;2.80;;;;;;;;;;4826301;29;20196;-84
2023/11/13 08:40:51;;;;;;;11.03;2.60;;;;;;;;;;4836801;29;20201;-84
2023/11/13 08:43:55;;;;;;;8.10;2.07;;;;;;;;;;4826278;29;20216;-84
2023/11/13 08:46:59;;;;;;;12.53;2.43;;;;;;;;;;4825183;29;20196;-84
2023/11/13 08:50:07;;;;;;;14.27;2.80;;;;;;;;;;4827097;29;20196;-84
2023/11/13 08:53:11;;;;;;;9.23;2.53;;;;;;;;;;4827974;29;20232;-83
2023/11/13 08:56:15;;;;;;;9.87;2.40;;;;;;;;;;4839405;29;20188;-83
2023/11/13 08:59:19;;;;;;;11.80;2.80;;;;;;;;;;4828991;29;20631;-83
2023/11/13 09:02:25;;;;;;;7.23;2.20;;;;;;;;;;4827843;29;20224;-83
2023/11/13 09:05:30;;;;;;;8.23;1.90;;;;;;;;;;4828171;29;20196;-83
2023/11/13 09:08:35;;;;;;;7.90;1.60;;;;;;;;;;4827895;29;20192;-83
2023/11/13 09:11:43;;;;;;;9.47;1.90;;;;;;;;;;4829270;29;20232;-83
2023/11/13 09:14:47;;;;;;;8.27;2.20;;;;;;;;;;4827907;29;20208;-83
2023/11/13 09:17:54;;;;;;;6.87;1.50;;;;;;;;;;4828310;29;20192;-83
2023/11/13 09:20:59;;;;;;;5.20;1.67;;;;;;;;;;4828064;29;20647;-83
2023/11/13 09:24:05;;;;;;;7.40;2.40;;;;;;;;;;4828456;29;20220;-83
2023/11/13 09:27:09;;;;;;;6.57;1.90;;;;;;;;;;4828664;29;20192;-82
2023/11/13 09:30:20;;;;;;;6.63;1.93;;;;;;;;;;4828484;29;20192;-82
2023/11/13 09:33:28;;;;;;;7.23;1.77;;;;;;;;;;4827921;29;20220;-82
2023/11/13 09:36:32;;;;;;;6.97;1.80;;;;;;;;;;4828689;29;20201;-82
2023/11/13 09:39:42;;;;;;;9.07;4.73;;;;;;;;;;4827509;29;20188;-82
2023/11/13 09:42:50;;;;;;;5.83;2.07;;;;;;;;;;4829043;29;20231;-83
2023/11/13 09:45:56;;;;;;;7.67;2.60;;;;;;;;;;4829053;29;20193;-82
2023/11/13 09:49:05;;;;;;;16.17;11.13;;;;;;;;;;4829716;29;20192;-83
2023/11/13 09:52:14;;;;;;;10.97;4.00;;;;;;;;;;4827905;29;20219;-83
2023/11/13 09:55:20;;;;;;;7.47;3.43;;;;;;;;;;4829494;29;20189;-83
2023/11/13 09:58:26;;;;;;;6.67;2.70;;;;;;;;;;4828445;29;20192;-83
2023/11/13 10:01:31;;;;;;;5.47;3.27;;;;;;;;;;4827142;29;20196;-83
2023/11/13 10:04:36;;;;;;;8.80;2.90;;;;;;;;;;4836701;29;20216;-84
2023/11/13 10:07:47;;;;;;;5.27;2.47;;;;;;;;;;4836043;29;20214;-83
2023/11/13 10:10:52;;;;;;;10.17;3.63;;;;;;;;;;4825902;29;20189;-83
2023/11/13 10:14:13;;;;;;;4.70;2.13;;;;;;;;;;4836693;29;20223;-83
2023/11/13 10:17:17;;;;;;;5.20;2.63;;;;;;;;;;4836588;29;20193;-83
2023/11/13 10:20:22;;;;;;;12.20;8.80;;;;;;;;;;4826805;29;20642;-83
2023/11/13 10:23:34;;;;;;;11.83;6.53;;;;;;;;;;4827345;29;20630;-83
2023/11/13 10:26:38;;;;;;;6.50;2.37;;;;;;;;;;4828597;29;20188;-83
2023/11/13 10:29:43;;;;;;;7.50;2.07;;;;;;;;;;4827500;29;20193;-83
2023/11/13 10:32:48;;;;;;;7.73;4.50;;;;;;;;;;4836540;29;20223;-83
2023/11/13 10:35:54;;;;;;;5.07;3.80;;;;;;;;;;4827003;29;20200;-83
2023/11/13 10:38:58;;;;;;;5.80;2.73;;;;;;;;;;4827832;29;20200;-83
2023/11/13 10:42:22;;;;;;;7.77;4.00;;;;;;;;;;4827006;29;20709;-83
2023/11/13 10:45:26;;;;;;;2.47;1.43;;;;;;;;;;4826545;29;20189;-83
2023/11/13 10:48:45;;;;;;;4.20;2.30;;;;;;;;;;4827281;29;20196;-83
2023/11/13 10:51:53;;;;;;;5.97;2.67;;;;;;;;;;4835884;29;20228;-84
2023/11/13 10:55:02;;;;;;;6.50;2.67;;;;;;;;;;4835465;29;20184;-84
2023/11/13 10:58:06;;;;;;;5.07;2.37;;;;;;;;;;4827211;29;20188;-84
2023/11/13 11:01:13;;;;;;;10.70;6.07;;;;;;;;;;4827268;29;20192;-84
2023/11/13 11:04:20;;;;;;;17.97;13.50;;;;;;;;;;4826618;29;20224;-84
2023/11/13 11:07:29;;;;;;;25.67;18.53;;;;;;;;;;4834927;29;20554;-83
2023/11/13 11:10:34;;;;;;;23.57;13.13;;;;;;;;;;4825492;29;20192;-83
2023/11/13 11:13:43;;;;;;;18.00;11.87;;;;;;;;;;4826003;29;20211;-84
2023/11/13 11:16:54;;;;;;;28.63;19.20;;;;;;;;;;4835519;29;20556;-84
2023/11/13 11:20:05;;;;;;;14.47;9.83;;;;;;;;;;4825595;29;20188;-83
2023/11/13 11:23:11;;;;;;;6.73;4.13;;;;;;;;;;4826348;29;20224;-83
2023/11/13 11:26:17;;;;;;;6.73;2.10;;;;;;;;;;4827206;29;20189;-83
2023/11/13 11:29:33;;;;;;;6.73;1.83;;;;;;;;;;4826210;29;20192;-83
2023/11/13 11:32:51;;;;;;;8.97;1.87;;;;;;;;;;4826223;29;20224;-83
2023/11/13 11:35:55;;;;;;;5.97;1.87;;;;;;;;;;4837039;29;20184;-83
2023/11/13 11:39:21;;;;;;;4.40;1.73;;;;;;;;;;4837203;29;20197;-83
2023/11/13 11:42:27;;;;;;;2.53;1.23;;;;;;;;;;4826529;29;20567;-84
2023/11/13 11:45:33;;;;;;;2.57;1.30;;;;;;;;;;4827106;29;20224;-83
2023/11/13 11:48:38;;;;;;;3.63;1.40;;;;;;;;;;4827460;29;20192;-83
2023/11/13 11:51:42;;;;;;;4.00;2.37;;;;;;;;;;4826706;29;20722;-83
2023/11/13 11:55:00;;;;;;;4.07;2.00;;;;;;;;;;4826626;29;20188;-83
2023/11/13 11:58:05;;;;;;;2.57;1.40;;;;;;;;;;4837164;29;20188;-83
2023/11/13 12:01:08;;;;;;;3.33;1.33;;;;;;;;;;4837133;29;20534;-83
2023/11/13 12:04:13;;;;;;;3.30;1.30;;;;;;;;;;4836691;29;20224;-83
2023/11/13 12:07:17;;;;;;;3.03;1.70;;;;;;;;;;4827797;29;20192;-83
2023/11/13 12:10:22;;;;;;;2.97;1.90;;;;;;;;;;4826082;29;20196;-83
2023/11/13 12:13:27;;;;;;;4.67;3.67;;;;;;;;;;4825857;29;20571;-83
2023/11/13 12:16:31;;;;;;;3.30;3.00;;;;;;;;;;4825859;29;20552;-83
2023/11/13 12:19:36;;;;;;;6.63;3.83;;;;;;;;;;4835742;29;20193;-83
2023/11/13 12:22:41;;;;;;;4.90;2.80;;;;;;;;;;4828634;29;20228;-83
2023/11/13 12:25:45;;;;;;;3.60;2.70;;;;;;;;;;4828923;29;20224;-83
2023/11/13 12:28:49;;;;;;;4.40;2.20;;;;;;;;;;4830940;29;20196;-84
2023/11/13 12:31:56;;;;;;;6.70;2.67;;;;;;;;;;4828520;29;20228;-84
2023/11/13 12:35:04;;;;;;;5.47;2.47;;;;;;;;;;4830463;29;20192;-84
2023/11/13 12:38:08;;;;;;;5.27;2.40;;;;;;;;;;4831102;29;20189;-82
2023/11/13 12:41:14;;;;;;;3.23;2.40;;;;;;;;;;4830956;29;20188;-82
2023/11/13 12:44:25;;;;;;;4.37;2.00;;;;;;;;;;4836091;29;20224;-82
2023/11/13 12:47:29;;;;;;;6.00;1.73;;;;;;;;;;4835987;29;20192;-82
2023/11/13 12:50:34;;;;;;;3.37;1.60;;;;;;;;;;4845598;29;20196;-82
2023/11/13 12:53:47;;;;;;;5.33;1.70;;;;;;;;;;4845370;29;20192;-82
2023/11/13 12:56:52;;;;;;;4.80;1.80;;;;;;;;;;4845253;29;20188;-82
2023/11/13 12:59:57;;;;;;;4.07;2.03;;;;;;;;;;4832678;29;20188;-82
2023/11/13 13:03:04;;;;;;;4.00;1.50;;;;;;;;;;4834081;29;20224;-82
2023/11/13 13:06:11;;;;;;;5.07;1.80;;;;;;;;;;4833033;29;20181;-82
2023/11/13 13:09:16;;;;;;;7.83;5.10;;;;;;;;;;4834636;29;20188;-83
2023/11/13 13:12:20;;;;;;;8.57;3.87;;;;;;;;;;4835681;29;20227;-83
2023/11/13 13:15:26;;;;;;;6.87;3.20;;;;;;;;;;4834357;29;20220;-83
2023/11/13 13:18:36;;;;;;;7.20;3.63;;;;;;;;;;4845699;29;20188;-82
2023/11/13 13:21:40;;;;;;;4.40;2.83;;;;;;;;;;4821382;29;20232;-83
2023/11/13 13:24:44;;;;;;;4.70;3.13;;;;;;;;;;4833820;29;20228;-83
2023/11/13 13:27:48;;;;;;;9.00;3.10;;;;;;;;;;4834516;29;20192;-83
2023/11/13 13:30:53;;;;;;;17.73;9.47;;;;;;;;;;4833985;29;20189;-83
2023/11/13 13:33:58;;;;;;;10.77;7.23;;;;;;;;;;4821961;29;20658;-83
2023/11/13 13:37:03;;;;;;;6.13;3.77;;;;;;;;;;4833152;29;20558;-83
2023/11/13 13:40:10;;;;;;;5.73;4.00;;;;;;;;;;4842184;29;20210;-83
2023/11/13 13:43:15;;;;;;;5.17;2.40;;;;;;;;;;4841889;29;20694;-84
2023/11/13 13:46:20;;;;;;;7.60;3.47;;;;;;;;;;4841430;29;20180;-82
2023/11/13 13:49:25;;;;;;;3.20;2.13;;;;;;;;;;4841780;29;20643;-82
2023/11/13 13:52:30;;;;;;;6.07;3.10;;;;;;;;;;4831185;29;20228;-81
2023/11/13 13:55:35;;;;;;;4.03;2.63;;;;;;;;;;4841958;29;20630;-84
2023/11/13 13:58:41;;;;;;;6.10;2.30;;;;;;;;;;4841816;29;20192;-84
2023/11/13 14:01:45;;;;;;;8.13;5.20;;;;;;;;;;4832795;29;20224;-84
2023/11/13 14:04:50;;;;;;;5.80;2.30;;;;;;;;;;4819487;29;20216;-84
2023/11/13 14:07:54;;;;;;;4.43;2.50;;;;;;;;;;4831118;29;20192;-84
2023/11/13 14:10:59;;;;;;;5.50;1.60;;;;;;;;;;4842029;29;20196;-84
2023/11/13 14:14:06;;;;;;;5.63;1.70;;;;;;;;;;4832556;29;20212;-84
2023/11/13 14:17:11;;;;;;;3.93;2.33;;;;;;;;;;4841274;29;20196;-84
2023/11/13 14:20:15;;;;;;;3.90;2.87;;;;;;;;;;4840533;29;20192;-84
2023/11/13 14:23:23;;;;;;;5.50;2.47;;;;;;;;;;4829034;29;20228;-84
2023/11/13 14:26:27;;;;;;;5.80;3.30;;;;;;;;;;4830080;29;20193;-84
2023/11/13 14:29:33;;;;;;;5.67;2.90;;;;;;;;;;4833405;29;20200;-84
2023/11/13 14:32:38;;;;;;;8.57;5.77;;;;;;;;;;4832031;29;20232;-84
2023/11/13 14:35:42;;;;;;;4.33;2.30;;;;;;;;;;4841587;29;20185;-84
2023/11/13 14:38:47;;;;;;;5.00;2.50;;;;;;;;;;4831040;29;20195;-84
2023/11/13 14:41:52;;;;;;;6.00;4.40;;;;;;;;;;4833752;29;20231;-84
2023/11/13 14:44:56;;;;;;;5.53;2.93;;;;;;;;;;4830284;29;20223;-84
2023/11/13 14:48:01;;;;;;;7.37;2.60;;;;;;;;;;4831743;29;20196;-83
2023/11/13 14:51:05;;;;;;;5.67;3.53;;;;;;;;;;4827222;29;20551;-84
2023/11/13 14:54:09;;;;;;;5.57;3.90;;;;;;;;;;4837879;29;20196;-84
2023/11/13 14:57:13;;;;;;;6.47;3.00;;;;;;;;;;4828076;29;20192;-84
2023/11/13 15:00:23;;;;;;;2.00;1.73;;;;;;;;;;4837918;29;20200;-85
2023/11/13 15:03:27;;;;;;;6.30;2.93;;;;;;;;;;4828195;29;20224;-83
2023/11/13 15:06:31;;;;;;;6.53;3.00;;;;;;;;;;4828046;29;20216;-82
2023/11/13 15:09:35;;;;;;;7.53;2.97;;;;;;;;;;4827181;29;20196;-82
2023/11/13 15:12:40;;;;;;;6.23;3.03;;;;;;;;;;4827146;29;20579;-82
2023/11/13 15:15:44;;;;;;;3.87;1.40;;;;;;;;;;4832856;29;20219;-82
2023/11/13 15:18:48;;;;;;;4.63;2.20;;;;;;;;;;4832259;29;20193;-83
2023/11/13 15:21:53;;;;;;;3.67;2.23;;;;;;;;;;4831957;29;20231;-83
2023/11/13 15:24:57;;;;;;;8.70;2.30;;;;;;;;;;4831719;29;20228;-82
2023/11/13 15:28:03;;;;;;;2.27;1.47;;;;;;;;;;4831602;29;20188;-84
2023/11/13 15:31:08;;;;;;;3.97;2.60;;;;;;;;;;4832048;29;20188;-84
2023/11/13 15:34:13;;;;;;;2.30;1.57;;;;;;;;;;4821001;29;20192;-83
2023/11/13 15:37:17;;;;;;;2.63;1.23;;;;;;;;;;4830714;29;20184;-83
2023/11/13 15:40:22;;;;;;;2.03;1.57;;;;;;;;;;4829870;29;20192;-84
2023/11/13 15:43:26;;;;;;;3.77;1.30;;;;;;;;;;4832039;29;20231;-84
2023/11/13 15:46:30;;;;;;;4.37;1.40;;;;;;;;;;4830270;29;20689;-84
2023/11/13 15:49:38;;;;;;;5.03;1.50;;;;;;;;;;4841887;29;20193;-84
2023/11/13 15:52:43;;;;;;;3.07;1.30;;;;;;;;;;4829967;29;20232;-84
2023/11/13 15:55:47;;;;;;;5.13;3.30;;;;;;;;;;4832992;29;20189;-84
2023/11/13 15:58:53;;;;;;;4.90;4.40;;;;;;;;;;4835271;29;20188;-84
2023/11/13 16:01:57;;;;;;;2.67;1.87;;;;;;;;;;4832447;29;20232;-84
2023/11/13 16:05:04;;;;;;;5.47;1.80;;;;;;;;;;4832213;29;20216;-84
2023/11/13 16:08:08;;;;;;;3.63;1.30;;;;;;;;;;4833097;29;20200;-84
2023/11/13 16:11:12;;;;;;;4.13;1.70;;;;;;;;;;4845331;29;20189;-84
2023/11/13 16:14:16;;;;;;;3.07;1.67;;;;;;;;;;4834767;29;20224;-83
2023/11/13 16:17:20;;;;;;;4.07;1.70;;;;;;;;;;4832497;29;20181;-83
2023/11/13 16:20:24;;;;;;;3.57;1.37;;;;;;;;;;4845269;29;20192;-83
2023/11/13 16:23:29;;;;;;;3.13;1.70;;;;;;;;;;4832657;29;20231;-83
2023/11/13 16:26:35;;;;;;;1.57;1.40;;;;;;;;;;4834514;29;20224;-84
2023/11/13 16:29:40;;;;;;;3.70;2.00;;;;;;;;;;4833994;29;20192;-84
2023/11/13 16:32:44;;;;;;;3.03;1.70;;;;;;;;;;4847172;29;20236;-84
2023/11/13 16:35:49;;;;;;;3.37;1.33;;;;;;;;;;4844195;29;20188;-83
2023/11/13 16:38:53;;;;;;;3.40;1.70;;;;;;;;;;4834473;29;20193;-83
2023/11/13 16:41:58;;;;;;;5.90;4.90;;;;;;;;;;4834294;29;20223;-83
2023/11/13 16:45:04;;;;;;;4.93;1.80;;;;;;;;;;4843561;29;20216;-83
2023/11/13 16:48:08;;;;;;;3.00;1.27;;;;;;;;;;4835673;29;20192;-84
2023/11/13 16:51:13;;;;;;;1.53;1.20;;;;;;;;;;4846050;29;20192;-84
2023/11/13 16:54:17;;;;;;;4.17;1.90;;;;;;;;;;4833864;29;20192;-83
2023/11/13 16:57:22;;;;;;;2.00;1.33;;;;;;;;;;4832964;29;20188;-83
2023/11/13 17:00:26;;;;;;;2.60;2.10;;;;;;;;;;4833520;29;20196;-84
2023/11/13 17:03:30;;;;;;;5.57;1.90;;;;;;;;;;4832815;29;20227;-84
2023/11/13 17:06:34;;;;;;;2.80;1.90;;;;;;;;;;4832604;29;20559;-84
2023/11/13 17:09:40;;;;;;;2.33;1.40;;;;;;;;;;4843872;29;20196;-84
2023/11/13 17:12:46;;;;;;;2.90;1.30;;;;;;;;;;4830732;29;20714;-84
2023/11/13 17:15:51;;;;;;;5.53;1.80;;;;;;;;;;4831090;29;20188;-84
2023/11/13 17:18:55;;;;;;;3.13;1.60;;;;;;;;;;4842673;29;20196;-84
2023/11/13 17:21:59;;;;;;;4.77;1.53;;;;;;;;;;4841285;29;20231;-84
2023/11/13 17:25:08;;;;;;;4.73;1.40;;;;;;;;;;4820003;29;20192;-84
2023/11/13 17:28:13;;;;;;;4.60;1.53;;;;;;;;;;4830835;29;20193;-84
2023/11/13 17:31:17;;;;;;;4.83;1.23;;;;;;;;;;4840132;29;20197;-83
2023/11/13 17:34:23;;;;;;;17.40;10.13;;;;;;;;;;4840204;29;20193;-84
2023/11/13 17:37:28;;;;;;;8.97;4.57;;;;;;;;;;4827628;29;20195;-84
2023/11/13 17:40:32;;;;;;;5.90;2.53;;;;;;;;;;4839263;29;20635;-84
2023/11/13 17:43:37;;;;;;;4.10;2.03;;;;;;;;;;4820049;29;20236;-84
2023/11/13 17:46:43;;;;;;;4.20;1.57;;;;;;;;;;4829887;29;20221;-84
2023/11/13 17:49:47;;;;;;;4.10;1.60;;;;;;;;;;4831756;29;20287;-84
2023/11/13 17:52:52;;;;;;;3.40;1.80;;;;;;;;;;4836334;29;20228;-84
2023/11/13 17:55:56;;;;;;;2.97;1.50;;;;;;;;;;4831437;29;20184;-84
2023/11/13 17:59:04;;;;;;;4.60;1.70;;;;;;;;;;4841626;29;20196;-84
2023/11/13 18:02:10;;;;;;;4.33;1.50;;;;;;;;;;4831625;29;20228;-84
2023/11/13 18:05:15;;;;;;;5.20;1.67;;;;;;;;;;4840843;29;20193;-84
2023/11/13 18:08:22;;;;;;;2.43;1.60;;;;;;;;;;4831340;29;20188;-85
2023/11/13 18:11:27;;;;;;;7.83;3.73;;;;;;;;;;4839998;29;20361;-83
2023/11/13 18:14:32;;;;;;;2.63;1.67;;;;;;;;;;4837672;29;20215;-85
2023/11/13 18:17:37;;;;;;;4.47;1.83;;;;;;;;;;4837166;29;20188;-85
2023/11/13 18:20:43;;;;;;;3.77;1.70;;;;;;;;;;4837663;29;20191;-85
2023/11/13 18:23:48;;;;;;;3.23;1.43;;;;;;;;;;4828449;29;20201;-84
2023/11/13 18:26:52;;;;;;;1.87;1.50;;;;;;;;;;4817281;29;20224;-84